createdAt,value
2022-12-14T00:02:24.845Z,95.40
2022-12-14T00:04:53.188Z,95.50
2022-12-14T00:07:21.500Z,95.10
2022-12-14T00:09:49.869Z,95.30
2022-12-14T00:12:18.211Z,95.10
2022-12-14T00:14:47.260Z,95.20
2022-12-14T00:17:16.953Z,95.60
2022-12-14T00:19:45.833Z,95.50
2022-12-14T00:22:17.380Z,95.40
2022-12-14T00:24:45.779Z,95.60
2022-12-14T00:27:14.109Z,95.60
2022-12-14T00:29:42.474Z,95.40
2022-12-14T00:32:10.818Z,95.40
2022-12-14T00:34:40.553Z,95.50
2022-12-14T00:37:08.947Z,95.50
2022-12-14T00:39:37.322Z,95.30
2022-12-14T00:42:05.792Z,95.30
2022-12-14T00:44:34.220Z,95.20
2022-12-14T00:47:02.567Z,95.40
2022-12-14T00:49:30.939Z,95.40
2022-12-14T00:52:00.616Z,95.60
2022-12-14T00:54:29.014Z,95.60
2022-12-14T00:56:57.493Z,95.50
2022-12-14T00:59:27.467Z,95.70
2022-12-14T01:01:58.081Z,95.70
2022-12-14T01:04:26.661Z,95.30
2022-12-14T01:06:55.672Z,95.50
2022-12-14T01:09:27.327Z,95.30
2022-12-14T01:11:55.691Z,95.40
2022-12-14T01:14:24.299Z,95.30
2022-12-14T01:16:52.839Z,95.20
2022-12-14T01:19:21.377Z,95.40
2022-12-14T01:21:49.738Z,95.20
2022-12-14T01:24:18.064Z,95.40
2022-12-14T01:26:47.843Z,95.00
2022-12-14T01:29:16.841Z,94.70
2022-12-14T01:31:48.515Z,95.20
2022-12-14T01:34:17.421Z,95.00
2022-12-14T01:36:45.986Z,95.00
2022-12-14T01:39:16.600Z,95.00
2022-12-14T01:41:49.492Z,94.80
2022-12-14T01:44:58.132Z,95.20
2022-12-14T01:47:37.240Z,95.10
2022-12-14T01:50:15.602Z,95.10
2022-12-14T01:52:48.308Z,95.20
2022-12-14T01:55:22.777Z,95.20
2022-12-14T01:57:59.266Z,95.00
2022-12-14T02:00:27.887Z,94.70
2022-12-14T02:03:05.824Z,95.30
2022-12-14T02:05:37.053Z,95.00
2022-12-14T02:08:07.378Z,95.00
2022-12-14T02:10:36.479Z,94.80
2022-12-14T02:13:15.612Z,95.20
2022-12-14T02:15:44.726Z,95.20
2022-12-14T02:18:20.813Z,95.20
2022-12-14T02:21:20.608Z,95.00
2022-12-14T02:24:24.413Z,95.40
2022-12-14T02:27:14.812Z,95.50
2022-12-14T02:30:07.807Z,95.30
2022-12-14T02:33:01.630Z,94.90
2022-12-14T02:35:42.255Z,95.30
2022-12-14T02:38:28.327Z,95.50
2022-12-14T02:41:07.293Z,95.60
2022-12-14T02:43:50.342Z,95.60
2022-12-14T02:46:28.626Z,95.60
2022-12-14T02:49:03.114Z,95.70
2022-12-14T02:51:50.302Z,95.70
2022-12-14T02:54:28.111Z,95.80
2022-12-14T02:57:01.247Z,95.80
2022-12-14T02:59:29.961Z,95.70
2022-12-14T03:02:02.223Z,95.70
2022-12-14T03:04:31.083Z,95.90
2022-12-14T03:07:04.443Z,95.70
2022-12-14T03:09:33.900Z,95.90
2022-12-14T03:12:08.936Z,95.90
2022-12-14T03:14:42.811Z,95.90
2022-12-14T03:17:19.885Z,95.90
2022-12-14T03:19:54.554Z,95.80
2022-12-14T03:22:28.476Z,96.10
2022-12-14T03:25:02.932Z,95.90
2022-12-14T03:27:35.630Z,95.90
2022-12-14T03:30:10.360Z,95.90
2022-12-14T03:32:46.145Z,95.90
2022-12-14T03:35:20.401Z,95.80
2022-12-14T03:37:53.541Z,95.90
2022-12-14T03:40:29.894Z,95.90
2022-12-14T03:43:05.828Z,95.90
2022-12-14T03:45:46.246Z,95.90
2022-12-14T03:48:30.120Z,95.90
2022-12-14T03:51:10.019Z,95.90
2022-12-14T03:53:47.926Z,95.90
2022-12-14T03:56:24.511Z,95.90
2022-12-14T03:59:03.105Z,95.80
2022-12-14T04:01:44.406Z,95.80
2022-12-14T04:04:19.847Z,95.60
2022-12-14T04:06:58.074Z,95.60
2022-12-14T04:09:32.683Z,95.70
2022-12-14T04:12:25.388Z,95.40
2022-12-14T04:15:21.132Z,95.50
2022-12-14T04:18:10.344Z,95.60
2022-12-14T04:20:47.589Z,95.70
2022-12-14T04:23:42.284Z,95.80
2022-12-14T04:26:16.435Z,95.80
2022-12-14T04:29:08.541Z,95.90
2022-12-14T04:31:39.151Z,95.90
2022-12-14T04:34:09.475Z,95.70
2022-12-14T04:36:44.130Z,95.70
2022-12-14T04:39:19.370Z,95.70
2022-12-14T04:41:52.069Z,95.80
2022-12-14T04:44:25.369Z,95.90
2022-12-14T04:46:54.895Z,95.80
2022-12-14T04:49:30.436Z,95.70
2022-12-14T04:52:06.067Z,95.60
2022-12-14T04:54:42.271Z,95.80
2022-12-14T04:57:19.148Z,95.80
2022-12-14T04:59:48.813Z,95.90
2022-12-14T05:02:25.850Z,95.90
2022-12-14T05:05:02.336Z,95.90
2022-12-14T05:07:43.633Z,95.90
2022-12-14T05:10:21.292Z,95.80
2022-12-14T05:12:59.266Z,96.00
2022-12-14T05:15:33.360Z,96.00
2022-12-14T05:18:04.551Z,95.90
2022-12-14T05:20:33.100Z,96.00
2022-12-14T05:23:02.891Z,95.70
2022-12-14T05:25:31.242Z,95.80
2022-12-14T05:27:59.624Z,95.80
2022-12-14T05:30:28.130Z,95.90
2022-12-14T05:32:56.613Z,95.80
2022-12-14T05:35:25.059Z,95.90
2022-12-14T05:37:53.486Z,95.90
2022-12-14T05:40:23.307Z,95.90
2022-12-14T05:42:55.648Z,95.70
2022-12-14T05:45:24.397Z,95.60
2022-12-14T05:47:52.853Z,95.70
2022-12-14T05:50:21.289Z,95.90
2022-12-14T05:52:52.285Z,95.80
2022-12-14T05:55:22.382Z,96.00
2022-12-14T05:57:50.842Z,95.90
2022-12-14T06:00:19.923Z,95.90
2022-12-14T06:02:48.399Z,96.00
2022-12-14T06:05:17.134Z,95.90
2022-12-14T06:07:45.617Z,96.10
2022-12-14T06:10:14.071Z,96.10
2022-12-14T06:12:44.083Z,96.20
2022-12-14T06:15:14.038Z,96.00
2022-12-14T06:17:44.515Z,96.20
2022-12-14T06:20:14.067Z,96.30
2022-12-14T06:22:47.393Z,96.50
2022-12-14T06:25:16.445Z,96.50
2022-12-14T06:27:46.389Z,96.40
2022-12-14T06:30:15.951Z,96.40
2022-12-14T06:32:46.304Z,96.50
2022-12-14T06:35:14.916Z,96.40
2022-12-14T06:37:43.397Z,96.40
2022-12-14T06:40:17.390Z,96.50
2022-12-14T06:42:49.130Z,96.50
2022-12-14T06:45:17.658Z,96.50
2022-12-14T06:47:46.214Z,96.70
2022-12-14T06:50:14.778Z,96.70
2022-12-14T06:52:43.595Z,96.70
2022-12-14T06:55:12.373Z,96.60
2022-12-14T06:57:40.853Z,96.60
2022-12-14T07:00:13.245Z,96.50
2022-12-14T07:02:41.779Z,97.00
2022-12-14T07:05:10.492Z,96.80
2022-12-14T07:07:38.886Z,97.00
2022-12-14T07:10:12.846Z,96.80
2022-12-14T07:12:41.543Z,97.10
2022-12-14T07:15:12.441Z,96.90
2022-12-14T07:17:40.995Z,97.10
2022-12-14T07:20:11.228Z,96.60
2022-12-14T07:22:40.825Z,97.10
2022-12-14T07:25:12.326Z,97.00
2022-12-14T07:27:40.775Z,97.00
2022-12-14T07:30:12.740Z,97.10
2022-12-14T07:32:41.252Z,97.20
2022-12-14T07:35:16.380Z,97.10
2022-12-14T07:37:49.320Z,97.20
2022-12-14T07:40:18.209Z,97.10
2022-12-14T07:42:50.412Z,97.40
2022-12-14T07:45:21.548Z,97.10
2022-12-14T07:47:49.987Z,96.90
2022-12-14T07:50:18.659Z,97.00
2022-12-14T07:52:47.131Z,97.10
2022-12-14T07:55:15.676Z,97.20
2022-12-14T07:57:44.250Z,97.20
2022-12-14T08:00:14.335Z,97.10
2022-12-14T08:02:44.377Z,97.30
2022-12-14T08:05:13.549Z,97.30
2022-12-14T08:07:42.039Z,97.20
2022-12-14T08:10:10.763Z,97.20
2022-12-14T08:12:39.243Z,97.20
2022-12-14T08:15:10.032Z,97.20
2022-12-14T08:17:38.622Z,97.40
2022-12-14T08:20:10.984Z,96.70
2022-12-14T08:22:39.422Z,97.30
2022-12-14T08:25:10.020Z,97.20
2022-12-14T08:27:38.489Z,97.30
2022-12-14T08:30:09.130Z,97.10
2022-12-14T08:32:37.553Z,97.30
2022-12-14T08:35:08.711Z,97.20
2022-12-14T08:37:37.229Z,97.30
2022-12-14T08:40:07.179Z,97.20
2022-12-14T08:42:35.697Z,97.40
2022-12-14T08:45:04.588Z,96.90
2022-12-14T08:47:32.993Z,97.30
2022-12-14T08:50:01.444Z,97.20
2022-12-14T08:52:31.294Z,97.10
2022-12-14T08:55:00.096Z,97.00
2022-12-14T08:57:28.555Z,96.80
2022-12-14T09:00:01.776Z,97.30
2022-12-14T09:02:31.159Z,97.30
2022-12-14T09:04:59.668Z,97.30
2022-12-14T09:07:30.921Z,97.20
2022-12-14T09:09:59.753Z,97.40
2022-12-14T09:12:29.042Z,97.30
2022-12-14T09:14:57.571Z,97.40
2022-12-14T09:17:25.995Z,97.20
2022-12-14T09:19:54.504Z,97.10
2022-12-14T09:22:23.009Z,97.20
2022-12-14T09:24:53.387Z,97.20
2022-12-14T09:27:22.554Z,97.50
2022-12-14T09:29:51.773Z,97.40
2022-12-14T09:32:20.379Z,97.40
2022-12-14T09:34:48.823Z,97.30
2022-12-14T09:37:17.229Z,97.30
2022-12-14T09:39:45.617Z,97.40
2022-12-14T09:42:42.808Z,97.40
2022-12-14T09:45:26.236Z,97.80
2022-12-14T09:47:59.430Z,97.70
2022-12-14T09:50:28.671Z,97.70
2022-12-14T09:53:01.588Z,97.50
2022-12-14T09:55:36.933Z,97.80
2022-12-14T09:58:14.431Z,97.80
2022-12-14T10:00:53.312Z,97.90
2022-12-14T10:03:44.020Z,97.80
2022-12-14T10:06:35.155Z,98.00
2022-12-14T10:09:14.872Z,98.10
2022-12-14T10:11:52.736Z,97.90
2022-12-14T10:14:38.361Z,98.00
2022-12-14T10:17:22.523Z,97.80
2022-12-14T10:19:55.443Z,98.00
2022-12-14T10:22:30.522Z,97.90
2022-12-14T10:25:08.360Z,97.70
2022-12-14T10:28:01.181Z,98.00
2022-12-14T10:30:27.958Z,97.90
2022-12-14T10:33:06.121Z,97.80
2022-12-14T10:35:47.335Z,97.80
2022-12-14T10:38:26.356Z,97.80
2022-12-14T10:41:01.150Z,97.80
2022-12-14T10:43:42.061Z,97.90
2022-12-14T10:46:23.586Z,98.00
2022-12-14T10:48:58.368Z,97.90
2022-12-14T10:51:35.049Z,97.80
2022-12-14T10:54:13.414Z,97.70
2022-12-14T10:56:44.518Z,97.80
2022-12-14T10:59:47.990Z,97.70
2022-12-14T11:02:33.116Z,97.90
2022-12-14T11:05:04.331Z,97.80
2022-12-14T11:07:43.026Z,97.70
2022-12-14T11:10:19.320Z,97.90
2022-12-14T11:13:01.594Z,97.90
2022-12-14T11:15:35.497Z,98.00
2022-12-14T11:18:25.367Z,98.00
2022-12-14T11:20:57.420Z,97.80
2022-12-14T11:23:29.115Z,97.80
2022-12-14T11:26:00.536Z,97.90
2022-12-14T11:28:37.030Z,97.80
2022-12-14T11:31:11.943Z,97.90
2022-12-14T11:33:50.482Z,97.90
2022-12-14T11:36:26.735Z,97.90
2022-12-14T11:38:58.693Z,97.90
2022-12-14T11:41:36.360Z,97.90
2022-12-14T11:44:08.454Z,98.00
2022-12-14T11:46:49.475Z,97.90
2022-12-14T11:49:28.945Z,97.90
2022-12-14T11:52:02.786Z,97.80
2022-12-14T11:54:31.270Z,97.90
2022-12-14T11:57:04.436Z,97.70
2022-12-14T11:59:40.363Z,97.80
2022-12-14T12:02:18.921Z,97.80
2022-12-14T12:04:55.219Z,97.70
2022-12-14T12:07:30.393Z,97.80
2022-12-14T12:10:04.991Z,97.80
2022-12-14T12:12:33.545Z,97.90
2022-12-14T12:15:02.113Z,97.80
2022-12-14T12:17:43.473Z,97.70
2022-12-14T12:20:31.217Z,97.80
2022-12-14T12:23:06.398Z,97.90
2022-12-14T12:25:37.676Z,97.80
2022-12-14T12:28:18.384Z,97.80
2022-12-14T12:30:51.199Z,97.80
2022-12-14T12:33:28.927Z,97.70
2022-12-14T12:36:04.975Z,97.80
2022-12-14T12:39:02.302Z,97.70
2022-12-14T12:41:45.749Z,97.80
2022-12-14T12:44:44.929Z,97.80
2022-12-14T12:47:37.042Z,97.80
2022-12-14T12:50:18.850Z,97.80
2022-12-14T12:53:03.025Z,97.90
2022-12-14T12:55:37.432Z,98.00
2022-12-14T12:58:10.037Z,97.90
2022-12-14T13:00:42.117Z,98.00
2022-12-14T13:03:20.597Z,98.00
2022-12-14T13:05:50.099Z,98.00
2022-12-14T13:08:28.351Z,97.90
2022-12-14T13:11:24.931Z,98.00
2022-12-14T13:13:53.863Z,97.90
2022-12-14T13:16:28.471Z,98.00
2022-12-14T13:19:40.499Z,98.10
2022-12-14T13:21:59.211Z,98.00
2022-12-14T13:24:33.522Z,97.90
2022-12-14T13:27:40.655Z,97.80
2022-12-14T13:30:34.943Z,98.00
2022-12-14T13:34:02.239Z,98.00
2022-12-14T13:37:13.717Z,98.00
2022-12-14T13:40:29.135Z,98.00
2022-12-14T13:43:16.648Z,98.10
2022-12-14T13:45:49.564Z,98.00
2022-12-14T13:48:25.329Z,98.00
2022-12-14T13:51:02.477Z,97.90
2022-12-14T13:53:36.327Z,97.90
2022-12-14T13:56:06.566Z,98.00
2022-12-14T13:58:40.387Z,97.90
2022-12-14T14:01:13.834Z,97.90
2022-12-14T14:03:54.539Z,97.90
2022-12-14T14:06:37.290Z,98.00
2022-12-14T14:10:00.381Z,97.90
2022-12-14T14:12:50.877Z,98.00
2022-12-14T14:16:26.325Z,97.90
2022-12-14T14:18:49.097Z,98.10
2022-12-14T14:21:58.815Z,98.00
2022-12-14T14:24:30.869Z,98.00
2022-12-14T14:27:09.561Z,98.00
2022-12-14T14:29:46.394Z,98.00
2022-12-14T14:32:35.918Z,97.90
2022-12-14T14:35:08.452Z,98.10
2022-12-14T14:37:38.726Z,98.00
2022-12-14T14:40:43.772Z,97.90
2022-12-14T14:43:27.959Z,98.00
2022-12-14T14:46:02.281Z,98.00
2022-12-14T14:48:36.003Z,98.00
2022-12-14T14:51:18.858Z,98.00
2022-12-14T14:53:50.246Z,98.10
2022-12-14T14:56:37.488Z,98.00
2022-12-14T14:59:51.290Z,98.10
2022-12-14T15:02:35.242Z,98.10
2022-12-14T15:05:33.027Z,98.00
2022-12-14T15:07:56.810Z,97.90
2022-12-14T15:10:34.144Z,97.90
2022-12-14T15:13:06.751Z,97.90
2022-12-14T15:15:39.864Z,97.90
2022-12-14T15:18:23.969Z,97.90
2022-12-14T15:20:59.484Z,98.10
2022-12-14T15:23:39.012Z,97.90
2022-12-14T15:26:17.089Z,98.00
2022-12-14T15:28:50.891Z,97.50
2022-12-14T15:31:29.068Z,97.70
2022-12-14T15:34:00.967Z,97.50
2022-12-14T15:36:33.997Z,97.30
2022-12-14T15:39:02.581Z,97.90
2022-12-14T15:41:35.850Z,97.50
2022-12-14T15:44:04.473Z,98.00
2022-12-14T15:46:35.972Z,97.10
2022-12-14T15:49:09.284Z,98.00
2022-12-14T15:51:40.924Z,97.90
2022-12-14T15:54:17.228Z,97.80
2022-12-14T15:56:51.528Z,97.90
2022-12-14T15:59:23.748Z,97.90
2022-12-14T16:02:06.456Z,97.80
2022-12-14T16:04:38.730Z,97.70
2022-12-14T16:07:15.622Z,97.60
2022-12-14T16:09:49.959Z,97.70
2022-12-14T16:12:22.803Z,97.90
2022-12-14T16:14:54.712Z,97.80
2022-12-14T16:17:28.205Z,97.90
2022-12-14T16:20:01.319Z,97.60
2022-12-14T16:22:32.140Z,97.80
2022-12-14T16:25:20.164Z,97.70
2022-12-14T16:27:51.164Z,98.00
2022-12-14T16:30:28.392Z,97.80
2022-12-14T16:33:15.247Z,97.90
2022-12-14T16:35:47.328Z,98.00
2022-12-14T16:38:18.796Z,97.90
2022-12-14T16:40:57.210Z,97.70
2022-12-14T16:43:34.474Z,97.90
2022-12-14T16:46:18.763Z,98.00
2022-12-14T16:49:19.517Z,97.80
2022-12-14T16:52:07.348Z,98.00
2022-12-14T16:54:37.737Z,98.10
2022-12-14T16:57:11.824Z,98.00
2022-12-14T16:59:44.039Z,97.90
2022-12-14T17:02:31.303Z,97.80
2022-12-14T17:05:02.300Z,97.90
2022-12-14T17:07:34.219Z,97.80
2022-12-14T17:10:02.714Z,97.70
2022-12-14T17:12:31.129Z,97.70
2022-12-14T17:14:59.951Z,97.60
2022-12-14T17:17:33.658Z,97.50
2022-12-14T17:20:05.753Z,97.80
2022-12-14T17:22:38.125Z,97.80
2022-12-14T17:25:07.509Z,97.50
2022-12-14T17:27:36.256Z,97.70
2022-12-14T17:30:05.732Z,97.40
2022-12-14T17:32:34.285Z,97.70
2022-12-14T17:35:03.784Z,97.60
2022-12-14T17:37:36.491Z,97.70
2022-12-14T17:40:08.580Z,97.80
2022-12-14T17:42:41.241Z,97.80
2022-12-14T17:45:21.491Z,97.80
2022-12-14T17:47:50.370Z,97.80
2022-12-14T17:50:19.840Z,97.30
2022-12-14T17:52:50.347Z,97.80
2022-12-14T17:55:23.483Z,97.80
2022-12-14T17:57:52.879Z,97.90
2022-12-14T18:00:48.126Z,97.60
2022-12-14T18:03:18.067Z,97.70
2022-12-14T18:05:49.407Z,97.80
2022-12-14T18:08:18.004Z,97.80
2022-12-14T18:10:48.862Z,97.60
2022-12-14T18:13:17.378Z,97.70
2022-12-14T18:15:49.708Z,97.60
2022-12-14T18:18:18.957Z,97.60
2022-12-14T18:20:52.826Z,97.40
2022-12-14T18:23:23.562Z,97.70
2022-12-14T18:25:55.949Z,97.70
2022-12-14T18:28:24.817Z,97.80
2022-12-14T18:31:00.640Z,97.60
2022-12-14T18:33:30.280Z,97.40
2022-12-14T18:35:59.220Z,97.70
2022-12-14T18:38:28.044Z,97.30
2022-12-14T18:41:01.691Z,97.70
2022-12-14T18:43:35.599Z,97.60
2022-12-14T18:46:06.620Z,97.70
2022-12-14T18:48:35.198Z,97.70
2022-12-14T18:51:04.460Z,97.40
2022-12-14T18:53:34.023Z,97.70
2022-12-14T18:56:08.795Z,96.70
2022-12-14T18:58:37.697Z,97.60
2022-12-14T19:01:06.615Z,96.60
2022-12-14T19:03:35.637Z,97.30
2022-12-14T19:08:57.146Z,97.60
2022-12-14T19:11:32.721Z,97.30
2022-12-14T19:14:02.102Z,97.70
2022-12-14T19:16:30.701Z,97.60
2022-12-14T19:18:59.691Z,97.80
2022-12-14T19:21:29.487Z,97.50
2022-12-14T19:23:59.480Z,97.60
2022-12-14T19:26:29.651Z,97.90
2022-12-14T19:28:58.550Z,97.50
2022-12-14T19:31:27.222Z,97.40
2022-12-14T19:33:55.847Z,97.60
2022-12-14T19:36:25.098Z,97.50
2022-12-14T19:38:53.747Z,97.70
2022-12-14T19:41:22.179Z,97.20
2022-12-14T19:43:51.921Z,97.40
2022-12-14T19:46:20.449Z,97.60
2022-12-14T19:48:48.844Z,97.60
2022-12-14T19:51:19.175Z,97.50
2022-12-14T19:53:48.302Z,97.70
2022-12-14T19:56:19.340Z,97.50
2022-12-14T19:58:48.203Z,97.80
2022-12-14T20:01:19.028Z,97.70
2022-12-14T20:03:49.193Z,97.30
2022-12-14T20:06:17.688Z,97.50
2022-12-14T20:08:49.574Z,97.40
2022-12-14T20:11:18.284Z,97.50
2022-12-14T20:13:49.423Z,97.50
2022-12-14T20:16:23.313Z,97.50
2022-12-14T20:18:52.095Z,97.30
2022-12-14T20:21:23.079Z,97.70
2022-12-14T20:23:51.889Z,97.70
2022-12-14T20:26:23.008Z,97.40
2022-12-14T20:28:53.474Z,97.70
2022-12-14T20:31:23.807Z,97.80
2022-12-14T20:33:52.434Z,97.60
2022-12-14T20:36:22.265Z,97.60
2022-12-14T20:38:57.644Z,97.40
2022-12-14T20:41:26.826Z,97.50
2022-12-14T20:43:55.630Z,97.70
2022-12-14T20:46:33.479Z,97.60
2022-12-14T20:49:04.718Z,97.60
2022-12-14T20:51:36.318Z,97.60
2022-12-14T20:54:07.714Z,97.60
2022-12-14T20:56:37.142Z,97.60
2022-12-14T20:59:06.417Z,97.60
2022-12-14T21:01:37.334Z,97.70
2022-12-14T21:04:06.985Z,97.60
2022-12-14T21:06:39.437Z,97.50
2022-12-14T21:09:11.840Z,97.50
2022-12-14T21:12:00.958Z,97.50
2022-12-14T21:14:32.354Z,97.60
2022-12-14T21:17:03.787Z,97.60
2022-12-14T21:19:32.955Z,97.60
2022-12-14T21:22:01.368Z,97.50
2022-12-14T21:25:02.532Z,97.40
2022-12-14T21:27:21.506Z,97.30
2022-12-14T21:29:50.557Z,97.60
2022-12-14T21:32:21.723Z,97.60
2022-12-14T21:34:50.637Z,97.60
2022-12-14T21:37:20.356Z,97.30
2022-12-14T21:39:54.478Z,97.50
2022-12-14T21:42:23.106Z,97.40
2022-12-14T21:44:53.684Z,97.50
2022-12-14T21:47:26.231Z,97.50
2022-12-14T21:49:55.169Z,97.60
2022-12-14T21:52:27.145Z,97.70
2022-12-14T21:54:55.790Z,97.50
2022-12-14T21:57:49.490Z,97.50
2022-12-14T22:00:20.178Z,97.60
2022-12-14T22:02:50.192Z,97.70
2022-12-14T22:05:19.223Z,97.50
2022-12-14T22:07:47.845Z,97.50
2022-12-14T22:10:21.295Z,97.30
2022-12-14T22:12:52.984Z,97.40
2022-12-14T22:15:21.351Z,97.60
2022-12-14T22:17:52.244Z,97.40
2022-12-14T22:20:20.755Z,97.50
2022-12-14T22:22:49.148Z,97.20
2022-12-14T22:25:17.776Z,97.20
2022-12-14T22:27:47.861Z,97.50
2022-12-14T22:30:19.093Z,97.40
2022-12-14T22:32:47.915Z,97.60
2022-12-14T22:35:18.148Z,97.80
2022-12-14T22:37:46.534Z,97.50
2022-12-14T22:40:15.369Z,97.30
2022-12-14T22:42:44.672Z,97.50
2022-12-14T22:45:13.067Z,97.20
2022-12-14T22:47:41.401Z,97.30
2022-12-14T22:50:11.117Z,97.40
2022-12-14T22:52:40.940Z,97.60
2022-12-14T22:55:10.598Z,97.20
2022-12-14T22:57:43.532Z,97.50
2022-12-14T23:00:16.449Z,97.60
2022-12-14T23:02:48.242Z,97.50
2022-12-14T23:05:18.550Z,97.50
2022-12-14T23:07:48.607Z,97.60
2022-12-14T23:10:34.577Z,97.30
2022-12-14T23:13:20.453Z,97.30
2022-12-14T23:16:06.413Z,97.40
2022-12-14T23:18:52.768Z,97.50
2022-12-14T23:21:40.552Z,97.60
2022-12-14T23:24:28.120Z,97.40
2022-12-14T23:27:13.977Z,97.40
2022-12-14T23:29:59.956Z,97.20
2022-12-14T23:32:45.995Z,97.40
2022-12-14T23:35:31.771Z,97.60
2022-12-14T23:38:23.086Z,97.50
2022-12-14T23:41:10.219Z,97.70
2022-12-14T23:43:56.286Z,97.90
2022-12-14T23:46:42.183Z,97.50
2022-12-14T23:49:28.283Z,97.40
2022-12-14T23:52:14.188Z,97.50
2022-12-14T23:55:00.057Z,97.40
2022-12-14T23:57:47.111Z,97.50
